sensor_id;sensor_type;location;lat;lon;timestamp;pressure;altitude;pressure_sealevel;temperature;humidity
29383;BME280;16365;51.598;7.668;2022-12-18T00:02:12;102226.16;;;-2.35;45.87
29383;BME280;16365;51.598;7.668;2022-12-18T00:04:39;102229.72;;;-2.34;46.44
29383;BME280;16365;51.598;7.668;2022-12-18T00:07:05;102227.00;;;-2.34;45.92
29383;BME280;16365;51.598;7.668;2022-12-18T00:09:32;102228.06;;;-2.35;45.85
29383;BME280;16365;51.598;7.668;2022-12-18T00:12:06;102228.25;;;-2.37;45.92
29383;BME280;16365;51.598;7.668;2022-12-18T00:14:41;102239.75;;;-2.35;45.54
29383;BME280;16365;51.598;7.668;2022-12-18T00:17:07;102232.00;;;-2.38;45.77
29383;BME280;16365;51.598;7.668;2022-12-18T00:19:34;102230.13;;;-2.37;46.25
29383;BME280;16365;51.598;7.668;2022-12-18T00:22:00;102243.91;;;-2.39;45.74
29383;BME280;16365;51.598;7.668;2022-12-18T00:24:27;102253.94;;;-2.39;45.85
29383;BME280;16365;51.598;7.668;2022-12-18T00:26:53;102253.09;;;-2.40;46.26
29383;BME280;16365;51.598;7.668;2022-12-18T00:29:20;102253.94;;;-2.39;45.66
29383;BME280;16365;51.598;7.668;2022-12-18T00:31:46;102260.41;;;-2.40;46.08
29383;BME280;16365;51.598;7.668;2022-12-18T00:34:13;102255.19;;;-2.42;45.53
29383;BME280;16365;51.598;7.668;2022-12-18T00:36:40;102254.34;;;-2.42;46.41
29383;BME280;16365;51.598;7.668;2022-12-18T00:39:08;102255.19;;;-2.42;46.41
29383;BME280;16365;51.598;7.668;2022-12-18T00:41:34;102250.78;;;-2.43;46.13
29383;BME280;16365;51.598;7.668;2022-12-18T00:44:19;102239.91;;;-2.43;46.01
29383;BME280;16365;51.598;7.668;2022-12-18T00:46:46;102238.03;;;-2.42;45.41
29383;BME280;16365;51.598;7.668;2022-12-18T00:49:15;102241.81;;;-2.43;45.59
29383;BME280;16365;51.598;7.668;2022-12-18T00:51:41;102247.44;;;-2.45;45.30
29383;BME280;16365;51.598;7.668;2022-12-18T00:54:09;102246.41;;;-2.44;45.61
29383;BME280;16365;51.598;7.668;2022-12-18T00:56:37;102248.28;;;-2.44;45.74
29383;BME280;16365;51.598;7.668;2022-12-18T00:59:14;102257.47;;;-2.45;45.33
29383;BME280;16365;51.598;7.668;2022-12-18T01:01:40;102255.16;;;-2.48;45.70
29383;BME280;16365;51.598;7.668;2022-12-18T01:04:07;102257.44;;;-2.52;45.45
29383;BME280;16365;51.598;7.668;2022-12-18T01:06:35;102247.44;;;-2.51;46.39
29383;BME280;16365;51.598;7.668;2022-12-18T01:09:02;102244.91;;;-2.53;45.79
29383;BME280;16365;51.598;7.668;2022-12-18T01:11:29;102246.56;;;-2.52;46.06
29383;BME280;16365;51.598;7.668;2022-12-18T01:13:55;102258.47;;;-2.53;45.45
29383;BME280;16365;51.598;7.668;2022-12-18T01:16:22;102250.34;;;-2.53;45.55
29383;BME280;16365;51.598;7.668;2022-12-18T01:18:53;102248.88;;;-2.55;45.89
29383;BME280;16365;51.598;7.668;2022-12-18T01:21:22;102237.19;;;-2.56;46.01
29383;BME280;16365;51.598;7.668;2022-12-18T01:23:52;102250.56;;;-2.54;46.17
29383;BME280;16365;51.598;7.668;2022-12-18T01:26:19;102253.06;;;-2.53;45.37
29383;BME280;16365;51.598;7.668;2022-12-18T01:28:46;102257.66;;;-2.53;45.88
29383;BME280;16365;51.598;7.668;2022-12-18T01:31:17;102255.16;;;-2.55;44.92
29383;BME280;16365;51.598;7.668;2022-12-18T01:33:45;102258.03;;;-2.56;45.80
29383;BME280;16365;51.598;7.668;2022-12-18T01:36:16;102246.56;;;-2.59;44.81
29383;BME280;16365;51.598;7.668;2022-12-18T01:38:43;102253.03;;;-2.60;44.90
29383;BME280;16365;51.598;7.668;2022-12-18T01:41:10;102240.69;;;-2.62;45.22
29383;BME280;16365;51.598;7.668;2022-12-18T01:43:56;102233.97;;;-2.66;44.61
29383;BME280;16365;51.598;7.668;2022-12-18T01:46:26;102232.13;;;-2.66;45.35
29383;BME280;16365;51.598;7.668;2022-12-18T01:49:01;102234.41;;;-2.69;45.26
29383;BME280;16365;51.598;7.668;2022-12-18T01:51:29;102238.34;;;-2.72;45.01
29383;BME280;16365;51.598;7.668;2022-12-18T01:53:57;102236.06;;;-2.75;45.05
29383;BME280;16365;51.598;7.668;2022-12-18T01:56:24;102239.78;;;-2.76;44.81
29383;BME280;16365;51.598;7.668;2022-12-18T02:01:17;102235.84;;;-2.80;44.89
29383;BME280;16365;51.598;7.668;2022-12-18T02:03:44;102244.97;;;-2.81;45.03
29383;BME280;16365;51.598;7.668;2022-12-18T02:06:21;102242.03;;;-2.86;45.63
29383;BME280;16365;51.598;7.668;2022-12-18T02:09:06;102240.38;;;-2.87;45.58
29383;BME280;16365;51.598;7.668;2022-12-18T02:11:56;102231.59;;;-2.89;45.35
29383;BME280;16365;51.598;7.668;2022-12-18T02:17:39;102227.03;;;-2.89;45.07
29383;BME280;16365;51.598;7.668;2022-12-18T02:20:17;102229.91;;;-2.90;45.79
29383;BME280;16365;51.598;7.668;2022-12-18T02:23:23;102223.66;;;-2.91;44.92
29383;BME280;16365;51.598;7.668;2022-12-18T02:26:12;102221.97;;;-2.92;45.26
29383;BME280;16365;51.598;7.668;2022-12-18T02:28:49;102223.84;;;-2.92;45.40
29383;BME280;16365;51.598;7.668;2022-12-18T02:31:21;102224.69;;;-2.92;45.61
29383;BME280;16365;51.598;7.668;2022-12-18T02:33:52;102223.84;;;-2.92;45.37
29383;BME280;16365;51.598;7.668;2022-12-18T02:36:22;102222.19;;;-2.93;44.88
29383;BME280;16365;51.598;7.668;2022-12-18T02:38:50;102222.19;;;-2.93;45.30
29383;BME280;16365;51.598;7.668;2022-12-18T02:41:18;102225.94;;;-2.94;45.17
29383;BME280;16365;51.598;7.668;2022-12-18T02:44:07;102223.41;;;-2.96;45.28
29383;BME280;16365;51.598;7.668;2022-12-18T02:52:07;102218.44;;;-2.92;45.82
29383;BME280;16365;51.598;7.668;2022-12-18T03:00:22;102219.47;;;-2.93;45.19
29383;BME280;16365;51.598;7.668;2022-12-18T03:02:56;102219.69;;;-2.95;45.29
29383;BME280;16365;51.598;7.668;2022-12-18T03:05:41;102216.31;;;-2.97;45.00
29383;BME280;16365;51.598;7.668;2022-12-18T03:08:15;102210.28;;;-2.99;45.12
29383;BME280;16365;51.598;7.668;2022-12-18T03:11:00;102200.44;;;-3.00;45.22
29383;BME280;16365;51.598;7.668;2022-12-18T03:15:59;102202.31;;;-3.00;45.38
29383;BME280;16365;51.598;7.668;2022-12-18T03:18:30;102212.53;;;-3.02;44.59
29383;BME280;16365;51.598;7.668;2022-12-18T03:21:03;102216.28;;;-3.03;45.51
29383;BME280;16365;51.598;7.668;2022-12-18T03:23:38;102211.06;;;-3.05;45.30
29383;BME280;16365;51.598;7.668;2022-12-18T03:26:09;102213.75;;;-3.05;45.76
29383;BME280;16365;51.598;7.668;2022-12-18T03:28:39;102222.13;;;-3.06;44.71
29383;BME280;16365;51.598;7.668;2022-12-18T03:31:10;102224.81;;;-3.06;45.49
29383;BME280;16365;51.598;7.668;2022-12-18T03:34:04;102222.31;;;-3.08;45.23
29383;BME280;16365;51.598;7.668;2022-12-18T03:36:32;102215.84;;;-3.07;45.01
29383;BME280;16365;51.598;7.668;2022-12-18T03:38:58;102212.31;;;-3.07;45.11
29383;BME280;16365;51.598;7.668;2022-12-18T03:41:33;102210.63;;;-3.08;45.08
29383;BME280;16365;51.598;7.668;2022-12-18T03:44:12;102203.97;;;-3.06;45.80
29383;BME280;16365;51.598;7.668;2022-12-18T03:52:18;102200.03;;;-3.03;45.82
29383;BME280;16365;51.598;7.668;2022-12-18T03:54:47;102203.34;;;-3.01;44.71
29383;BME280;16365;51.598;7.668;2022-12-18T03:57:17;102209.81;;;-3.02;44.72
29383;BME280;16365;51.598;7.668;2022-12-18T03:59:47;102206.28;;;-3.03;45.03
29383;BME280;16365;51.598;7.668;2022-12-18T04:02:17;102213.59;;;-3.03;45.13
29383;BME280;16365;51.598;7.668;2022-12-18T04:04:44;102215.47;;;-3.04;45.29
29383;BME280;16365;51.598;7.668;2022-12-18T04:07:13;102223.59;;;-3.04;45.68
29383;BME280;16365;51.598;7.668;2022-12-18T04:09:41;102222.94;;;-3.06;45.54
29383;BME280;16365;51.598;7.668;2022-12-18T04:12:09;102227.53;;;-3.06;45.29
29383;BME280;16365;51.598;7.668;2022-12-18T04:14:35;102225.66;;;-3.06;45.69
29383;BME280;16365;51.598;7.668;2022-12-18T04:17:03;102223.78;;;-3.05;45.16
29383;BME280;16365;51.598;7.668;2022-12-18T04:19:29;102219.19;;;-3.05;45.76
29383;BME280;16365;51.598;7.668;2022-12-18T04:21:56;102208.34;;;-3.05;45.41
29383;BME280;16365;51.598;7.668;2022-12-18T04:24:22;102208.34;;;-3.05;45.81
29383;BME280;16365;51.598;7.668;2022-12-18T04:26:49;102210.22;;;-3.05;45.19
29383;BME280;16365;51.598;7.668;2022-12-18T04:29:15;102207.72;;;-3.07;45.05
29383;BME280;16365;51.598;7.668;2022-12-18T04:31:42;102198.53;;;-3.06;45.17
29383;BME280;16365;51.598;7.668;2022-12-18T04:34:08;102201.25;;;-3.06;44.86
29383;BME280;16365;51.598;7.668;2022-12-18T04:36:35;102189.56;;;-3.06;45.14
29383;BME280;16365;51.598;7.668;2022-12-18T04:39:01;102202.91;;;-3.05;44.98
29383;BME280;16365;51.598;7.668;2022-12-18T04:41:27;102201.25;;;-3.06;45.15
29383;BME280;16365;51.598;7.668;2022-12-18T04:43:54;102205.84;;;-3.06;45.42
29383;BME280;16365;51.598;7.668;2022-12-18T04:46:20;102214.81;;;-3.06;44.74
29383;BME280;16365;51.598;7.668;2022-12-18T04:48:47;102210.44;;;-3.07;44.64
29383;BME280;16365;51.598;7.668;2022-12-18T04:51:13;102212.31;;;-3.07;44.66
29383;BME280;16365;51.598;7.668;2022-12-18T04:53:40;102213.97;;;-3.06;45.41
29383;BME280;16365;51.598;7.668;2022-12-18T04:56:11;102211.25;;;-3.06;44.70
29383;BME280;16365;51.598;7.668;2022-12-18T04:58:39;102209.38;;;-3.06;45.73
29383;BME280;16365;51.598;7.668;2022-12-18T05:01:07;102209.22;;;-3.04;44.83
29383;BME280;16365;51.598;7.668;2022-12-18T05:03:37;102212.75;;;-3.04;44.80
29383;BME280;16365;51.598;7.668;2022-12-18T05:06:05;102193.75;;;-3.04;45.37
29383;BME280;16365;51.598;7.668;2022-12-18T05:08:33;102196.25;;;-3.02;45.33
29383;BME280;16365;51.598;7.668;2022-12-18T05:11:04;102187.91;;;-3.01;44.68
29383;BME280;16365;51.598;7.668;2022-12-18T05:13:31;102190.44;;;-2.99;44.67
29383;BME280;16365;51.598;7.668;2022-12-18T05:15:58;102179.59;;;-2.99;45.12
29383;BME280;16365;51.598;7.668;2022-12-18T05:18:25;102187.53;;;-2.98;45.15
29383;BME280;16365;51.598;7.668;2022-12-18T05:20:52;102181.06;;;-2.97;44.98
29383;BME280;16365;51.598;7.668;2022-12-18T05:23:21;102175.63;;;-2.97;45.47
29383;BME280;16365;51.598;7.668;2022-12-18T05:25:59;102170.41;;;-2.98;45.04
29383;BME280;16365;51.598;7.668;2022-12-18T05:28:27;102173.97;;;-2.98;45.79
29383;BME280;16365;51.598;7.668;2022-12-18T05:30:56;102171.88;;;-2.96;45.69
29383;BME280;16365;51.598;7.668;2022-12-18T05:33:25;102174.41;;;-2.94;44.96
29383;BME280;16365;51.598;7.668;2022-12-18T05:35:57;102166.88;;;-2.92;44.83
29383;BME280;16365;51.598;7.668;2022-12-18T05:38:25;102158.53;;;-2.91;45.66
29383;BME280;16365;51.598;7.668;2022-12-18T05:40:52;102161.06;;;-2.89;45.11
29383;BME280;16365;51.598;7.668;2022-12-18T05:43:20;102171.50;;;-2.86;45.65
29383;BME280;16365;51.598;7.668;2022-12-18T05:45:49;102161.47;;;-2.86;45.94
29383;BME280;16365;51.598;7.668;2022-12-18T05:48:16;102169.44;;;-2.84;45.04
29383;BME280;16365;51.598;7.668;2022-12-18T05:50:44;102167.53;;;-2.83;45.94
29383;BME280;16365;51.598;7.668;2022-12-18T05:53:15;102176.53;;;-2.83;45.12
29383;BME280;16365;51.598;7.668;2022-12-18T05:55:42;102188.00;;;-2.81;45.84
29383;BME280;16365;51.598;7.668;2022-12-18T05:58:11;102178.19;;;-2.82;45.64
29383;BME280;16365;51.598;7.668;2022-12-18T06:00:40;102179.84;;;-2.81;46.14
29383;BME280;16365;51.598;7.668;2022-12-18T06:03:07;102182.19;;;-2.78;45.44
29383;BME280;16365;51.598;7.668;2022-12-18T06:05:39;102197.22;;;-2.75;46.02
29383;BME280;16365;51.598;7.668;2022-12-18T06:08:07;102200.56;;;-2.73;45.23
29383;BME280;16365;51.598;7.668;2022-12-18T06:10:33;102203.91;;;-2.71;45.40
29383;BME280;16365;51.598;7.668;2022-12-18T06:13:00;102193.69;;;-2.69;45.89
29383;BME280;16365;51.598;7.668;2022-12-18T06:15:27;102197.88;;;-2.67;46.03
29383;BME280;16365;51.598;7.668;2022-12-18T06:17:54;102198.69;;;-2.66;45.81
29383;BME280;16365;51.598;7.668;2022-12-18T06:20:20;102205.59;;;-2.64;45.81
29383;BME280;16365;51.598;7.668;2022-12-18T06:22:47;102216.25;;;-2.62;45.38
29383;BME280;16365;51.598;7.668;2022-12-18T06:25:13;102218.97;;;-2.62;45.37
29383;BME280;16365;51.598;7.668;2022-12-18T06:27:40;102226.94;;;-2.61;45.73
29383;BME280;16365;51.598;7.668;2022-12-18T06:30:08;102215.03;;;-2.60;45.26
29383;BME280;16365;51.598;7.668;2022-12-18T06:32:35;102216.69;;;-2.59;45.74
29383;BME280;16365;51.598;7.668;2022-12-18T06:35:01;102212.75;;;-2.56;46.07
29383;BME280;16365;51.598;7.668;2022-12-18T06:37:28;102219.84;;;-2.55;46.14
29383;BME280;16365;51.598;7.668;2022-12-18T06:39:54;102216.91;;;-2.53;46.01
29383;BME280;16365;51.598;7.668;2022-12-18T06:42:23;102220.47;;;-2.53;45.78
29383;BME280;16365;51.598;7.668;2022-12-18T06:44:49;102219.03;;;-2.49;45.51
29383;BME280;16365;51.598;7.668;2022-12-18T06:47:16;102219.66;;;-2.47;45.99
29383;BME280;16365;51.598;7.668;2022-12-18T06:49:42;102216.75;;;-2.45;45.80
29383;BME280;16365;51.598;7.668;2022-12-18T06:52:09;102202.75;;;-2.42;45.52
29383;BME280;16365;51.598;7.668;2022-12-18T06:54:35;102210.50;;;-2.39;45.83
29383;BME280;16365;51.598;7.668;2022-12-18T06:57:02;102205.69;;;-2.37;46.36
29383;BME280;16365;51.598;7.668;2022-12-18T06:59:28;102204.44;;;-2.35;46.47
29383;BME280;16365;51.598;7.668;2022-12-18T07:01:55;102215.75;;;-2.31;46.48
29383;BME280;16365;51.598;7.668;2022-12-18T07:04:22;102205.50;;;-2.29;45.97
29383;BME280;16365;51.598;7.668;2022-12-18T07:06:48;102216.78;;;-2.25;46.07
29383;BME280;16365;51.598;7.668;2022-12-18T07:09:17;102203.81;;;-2.23;46.35
29383;BME280;16365;51.598;7.668;2022-12-18T07:11:43;102204.25;;;-2.20;46.11
29383;BME280;16365;51.598;7.668;2022-12-18T07:14:09;102209.28;;;-2.17;45.74
29383;BME280;16365;51.598;7.668;2022-12-18T07:16:36;102204.47;;;-2.15;46.26
29383;BME280;16365;51.598;7.668;2022-12-18T07:19:02;102207.84;;;-2.13;45.69
29383;BME280;16365;51.598;7.668;2022-12-18T07:21:29;102202.19;;;-2.11;45.75
29383;BME280;16365;51.598;7.668;2022-12-18T07:23:56;102198.19;;;-2.09;45.99
29383;BME280;16365;51.598;7.668;2022-12-18T07:26:22;102199.69;;;-2.06;46.74
29383;BME280;16365;51.598;7.668;2022-12-18T07:28:49;102205.56;;;-2.02;46.39
29383;BME280;16365;51.598;7.668;2022-12-18T07:31:21;102199.06;;;-2.01;46.16
29383;BME280;16365;51.598;7.668;2022-12-18T07:33:48;102200.31;;;-1.97;46.88
29383;BME280;16365;51.598;7.668;2022-12-18T07:36:16;102204.31;;;-1.93;46.06
29383;BME280;16365;51.598;7.668;2022-12-18T07:38:45;102200.94;;;-1.89;46.51
29383;BME280;16365;51.598;7.668;2022-12-18T07:41:13;102189.66;;;-1.86;46.77
29383;BME280;16365;51.598;7.668;2022-12-18T07:43:40;102189.03;;;-1.81;46.58
29383;BME280;16365;51.598;7.668;2022-12-18T07:46:09;102196.34;;;-1.75;47.08
29383;BME280;16365;51.598;7.668;2022-12-18T07:48:37;102190.28;;;-1.70;47.00
29383;BME280;16365;51.598;7.668;2022-12-18T07:51:05;102182.97;;;-1.63;46.86
29383;BME280;16365;51.598;7.668;2022-12-18T07:53:33;102183.78;;;-1.56;47.46
29383;BME280;16365;51.598;7.668;2022-12-18T07:56:02;102182.94;;;-1.50;47.39
29383;BME280;16365;51.598;7.668;2022-12-18T07:58:49;102191.50;;;-1.40;47.60
29383;BME280;16365;51.598;7.668;2022-12-18T08:01:15;102189.38;;;-1.31;47.92
29383;BME280;16365;51.598;7.668;2022-12-18T08:03:42;102190.00;;;-1.22;47.19
29383;BME280;16365;51.598;7.668;2022-12-18T08:06:09;102201.50;;;-1.14;47.96
29383;BME280;16365;51.598;7.668;2022-12-18T08:08:36;102191.63;;;-1.08;47.51
29383;BME280;16365;51.598;7.668;2022-12-18T08:11:03;102194.34;;;-1.01;47.89
29383;BME280;16365;51.598;7.668;2022-12-18T08:13:29;102191.59;;;-0.95;47.91
29383;BME280;16365;51.598;7.668;2022-12-18T08:16:03;102193.22;;;-0.87;48.01
29383;BME280;16365;51.598;7.668;2022-12-18T08:18:32;102189.44;;;-0.80;48.04
29383;BME280;16365;51.598;7.668;2022-12-18T08:21:13;102180.19;;;-0.72;47.93
29383;BME280;16365;51.598;7.668;2022-12-18T08:23:41;102178.91;;;-0.63;48.02
29383;BME280;16365;51.598;7.668;2022-12-18T08:26:11;102175.06;;;-0.55;47.89
29383;BME280;16365;51.598;7.668;2022-12-18T08:28:38;102176.91;;;-0.49;48.40
29383;BME280;16365;51.598;7.668;2022-12-18T08:31:04;102171.00;;;-0.39;47.50
29383;BME280;16365;51.598;7.668;2022-12-18T08:33:31;102167.19;;;-0.32;47.90
29383;BME280;16365;51.598;7.668;2022-12-18T08:35:59;102172.38;;;-0.23;47.75
29383;BME280;16365;51.598;7.668;2022-12-18T08:38:26;102163.91;;;-0.15;47.97
29383;BME280;16365;51.598;7.668;2022-12-18T08:41:03;102146.47;;;-0.08;48.66
29383;BME280;16365;51.598;7.668;2022-12-18T08:43:30;102141.13;;;0.04;47.76
29383;BME280;16365;51.598;7.668;2022-12-18T08:46:16;102137.06;;;0.13;48.41
29383;BME280;16365;51.598;7.668;2022-12-18T08:48:42;102130.03;;;0.24;48.02
29383;BME280;16365;51.598;7.668;2022-12-18T08:51:09;102122.19;;;0.34;48.17
29383;BME280;16365;51.598;7.668;2022-12-18T08:53:36;102109.91;;;0.43;48.51
29383;BME280;16365;51.598;7.668;2022-12-18T08:56:04;102105.81;;;0.52;48.36
29383;BME280;16365;51.598;7.668;2022-12-18T08:58:31;102109.72;;;0.63;48.38
29383;BME280;16365;51.598;7.668;2022-12-18T09:01:05;102114.84;;;0.71;48.67
29383;BME280;16365;51.598;7.668;2022-12-18T09:03:32;102110.50;;;0.82;48.71
29383;BME280;16365;51.598;7.668;2022-12-18T09:05:59;102118.16;;;0.92;48.45
29383;BME280;16365;51.598;7.668;2022-12-18T09:08:26;102125.22;;;0.99;47.84
29383;BME280;16365;51.598;7.668;2022-12-18T09:10:52;102126.00;;;1.07;47.93
29383;BME280;16365;51.598;7.668;2022-12-18T09:13:19;102136.81;;;1.13;47.84
29383;BME280;16365;51.598;7.668;2022-12-18T09:15:49;102141.34;;;1.19;48.27
29383;BME280;16365;51.598;7.668;2022-12-18T09:18:17;102133.09;;;1.26;47.89
29383;BME280;16365;51.598;7.668;2022-12-18T09:20:44;102130.00;;;1.34;48.22
29383;BME280;16365;51.598;7.668;2022-12-18T09:23:12;102119.84;;;1.41;48.29
29383;BME280;16365;51.598;7.668;2022-12-18T09:25:39;102123.09;;;1.50;48.40
29383;BME280;16365;51.598;7.668;2022-12-18T09:28:12;102115.84;;;1.56;48.27
29383;BME280;16365;51.598;7.668;2022-12-18T09:30:41;102114.66;;;1.63;48.46
29383;BME280;16365;51.598;7.668;2022-12-18T09:33:08;102109.13;;;1.70;48.01
29383;BME280;16365;51.598;7.668;2022-12-18T09:35:36;102101.63;;;1.77;48.26
29383;BME280;16365;51.598;7.668;2022-12-18T09:38:03;102111.63;;;1.83;48.11
29383;BME280;16365;51.598;7.668;2022-12-18T09:40:35;102112.59;;;1.89;48.39
29383;BME280;16365;51.598;7.668;2022-12-18T09:43:05;102122.59;;;1.95;47.87
29383;BME280;16365;51.598;7.668;2022-12-18T09:45:51;102124.63;;;1.99;48.25
29383;BME280;16365;51.598;7.668;2022-12-18T09:48:25;102123.41;;;2.07;48.23
29383;BME280;16365;51.598;7.668;2022-12-18T09:50:57;102116.16;;;2.13;48.24
29383;BME280;16365;51.598;7.668;2022-12-18T09:53:28;102111.66;;;2.18;47.98
29383;BME280;16365;51.598;7.668;2022-12-18T09:55:58;102116.19;;;2.24;48.24
29383;BME280;16365;51.598;7.668;2022-12-18T09:58:31;102113.56;;;2.29;48.00
29383;BME280;16365;51.598;7.668;2022-12-18T10:00:58;102109.66;;;2.37;48.49
29383;BME280;16365;51.598;7.668;2022-12-18T10:03:25;102101.56;;;2.42;48.44
29383;BME280;16365;51.598;7.668;2022-12-18T10:06:13;102095.94;;;2.49;48.35
29383;BME280;16365;51.598;7.668;2022-12-18T10:12:21;102088.41;;;2.68;48.39
29383;BME280;16365;51.598;7.668;2022-12-18T10:18:11;102083.59;;;2.87;48.49
29383;BME280;16365;51.598;7.668;2022-12-18T10:20:50;102082.72;;;2.98;48.24
29383;BME280;16365;51.598;7.668;2022-12-18T10:23:23;102081.53;;;3.05;48.15
29383;BME280;16365;51.598;7.668;2022-12-18T10:26:02;102064.66;;;3.14;47.86
29383;BME280;16365;51.598;7.668;2022-12-18T10:28:32;102066.53;;;3.25;47.73
29383;BME280;16365;51.598;7.668;2022-12-18T10:30:59;102054.94;;;3.34;48.03
29383;BME280;16365;51.598;7.668;2022-12-18T10:33:29;102055.34;;;3.43;47.70
29383;BME280;16365;51.598;7.668;2022-12-18T10:35:56;102063.19;;;3.51;47.94
29383;BME280;16365;51.598;7.668;2022-12-18T10:38:27;102060.88;;;3.60;47.71
29383;BME280;16365;51.598;7.668;2022-12-18T10:43:23;102047.41;;;3.75;47.87
29383;BME280;16365;51.598;7.668;2022-12-18T10:46:19;102041.72;;;3.82;47.45
29383;BME280;16365;51.598;7.668;2022-12-18T10:51:42;102027.47;;;3.97;47.87
29383;BME280;16365;51.598;7.668;2022-12-18T10:54:21;102015.19;;;4.04;47.51
29383;BME280;16365;51.598;7.668;2022-12-18T10:56:48;102010.38;;;4.11;47.66
29383;BME280;16365;51.598;7.668;2022-12-18T10:59:16;102006.88;;;4.16;47.72
29383;BME280;16365;51.598;7.668;2022-12-18T11:04:26;102002.59;;;4.25;47.89
29383;BME280;16365;51.598;7.668;2022-12-18T11:07:04;102010.06;;;4.30;47.75
29383;BME280;16365;51.598;7.668;2022-12-18T11:09:32;102012.63;;;4.36;47.61
29383;BME280;16365;51.598;7.668;2022-12-18T11:12:00;102014.63;;;4.41;47.29
29383;BME280;16365;51.598;7.668;2022-12-18T11:14:32;102005.56;;;4.41;47.12
29383;BME280;16365;51.598;7.668;2022-12-18T11:17:00;102006.13;;;4.43;47.11
29383;BME280;16365;51.598;7.668;2022-12-18T11:19:57;101984.97;;;4.43;47.32
29383;BME280;16365;51.598;7.668;2022-12-18T11:22:29;101977.06;;;4.47;47.09
29383;BME280;16365;51.598;7.668;2022-12-18T11:25:18;101983.38;;;4.47;47.22
29383;BME280;16365;51.598;7.668;2022-12-18T11:28:01;101973.56;;;4.51;47.00
29383;BME280;16365;51.598;7.668;2022-12-18T11:30:36;101977.97;;;4.52;47.18
29383;BME280;16365;51.598;7.668;2022-12-18T11:33:15;101959.56;;;4.53;47.03
29383;BME280;16365;51.598;7.668;2022-12-18T11:35:49;101958.22;;;4.55;47.01
29383;BME280;16365;51.598;7.668;2022-12-18T11:38:24;101959.06;;;4.56;47.43
29383;BME280;16365;51.598;7.668;2022-12-18T11:41:04;101969.78;;;4.57;47.54
29383;BME280;16365;51.598;7.668;2022-12-18T11:43:40;101967.34;;;4.61;47.29
29383;BME280;16365;51.598;7.668;2022-12-18T11:46:17;101967.91;;;4.63;47.28
29383;BME280;16365;51.598;7.668;2022-12-18T11:49:25;101966.81;;;4.64;47.05
29383;BME280;16365;51.598;7.668;2022-12-18T11:52:28;101966.63;;;4.71;47.14
29383;BME280;16365;51.598;7.668;2022-12-18T11:54:52;101954.06;;;4.75;46.93
29383;BME280;16365;51.598;7.668;2022-12-18T11:57:25;101934.28;;;4.78;47.22
29383;BME280;16365;51.598;7.668;2022-12-18T12:00:07;101934.88;;;4.80;47.24
29383;BME280;16365;51.598;7.668;2022-12-18T12:03:01;101928.59;;;4.84;47.06
29383;BME280;16365;51.598;7.668;2022-12-18T12:10:49;101900.63;;;4.93;47.16
29383;BME280;16365;51.598;7.668;2022-12-18T12:13:28;101902.88;;;4.96;47.08
29383;BME280;16365;51.598;7.668;2022-12-18T12:16:18;101907.03;;;4.98;47.06
29383;BME280;16365;51.598;7.668;2022-12-18T12:21:45;101915.31;;;5.03;46.88
29383;BME280;16365;51.598;7.668;2022-12-18T12:24:28;101910.38;;;5.05;46.90
29383;BME280;16365;51.598;7.668;2022-12-18T12:27:20;101897.19;;;5.07;47.22
29383;BME280;16365;51.598;7.668;2022-12-18T12:30:07;101899.69;;;5.09;46.93
29383;BME280;16365;51.598;7.668;2022-12-18T12:33:21;101900.25;;;5.11;47.19
29383;BME280;16365;51.598;7.668;2022-12-18T12:38:45;101881.31;;;5.14;46.68
29383;BME280;16365;51.598;7.668;2022-12-18T12:41:21;101879.41;;;5.15;46.74
29383;BME280;16365;51.598;7.668;2022-12-18T12:44:14;101876.66;;;5.15;47.16
29383;BME280;16365;51.598;7.668;2022-12-18T12:46:44;101872.81;;;5.16;46.88
29383;BME280;16365;51.598;7.668;2022-12-18T12:49:17;101871.16;;;5.15;46.87
29383;BME280;16365;51.598;7.668;2022-12-18T12:51:56;101865.66;;;5.15;46.89
29383;BME280;16365;51.598;7.668;2022-12-18T12:54:25;101862.63;;;5.16;46.96
29383;BME280;16365;51.598;7.668;2022-12-18T13:02:25;101849.72;;;5.17;46.90
29383;BME280;16365;51.598;7.668;2022-12-18T13:05:10;101846.13;;;5.16;47.17
29383;BME280;16365;51.598;7.668;2022-12-18T13:07:51;101845.06;;;5.18;47.03
29383;BME280;16365;51.598;7.668;2022-12-18T13:10:26;101848.63;;;5.18;47.43
29383;BME280;16365;51.598;7.668;2022-12-18T13:15:33;101847.53;;;5.19;47.67
29383;BME280;16365;51.598;7.668;2022-12-18T13:20:36;101849.50;;;5.24;47.27
29383;BME280;16365;51.598;7.668;2022-12-18T13:25:56;101826.13;;;5.26;47.39
29383;BME280;16365;51.598;7.668;2022-12-18T13:31:15;101830.28;;;5.29;47.22
29383;BME280;16365;51.598;7.668;2022-12-18T13:36:54;101838.56;;;5.34;47.55
29383;BME280;16365;51.598;7.668;2022-12-18T13:39:23;101837.47;;;5.35;47.95
29383;BME280;16365;51.598;7.668;2022-12-18T13:44:34;101814.13;;;5.37;47.62
29383;BME280;16365;51.598;7.668;2022-12-18T13:47:26;101821.28;;;5.38;47.85
29383;BME280;16365;51.598;7.668;2022-12-18T13:49:54;101825.16;;;5.43;47.19
29383;BME280;16365;51.598;7.668;2022-12-18T13:52:26;101829.81;;;5.42;47.25
29383;BME280;16365;51.598;7.668;2022-12-18T13:54:56;101824.88;;;5.44;47.18
29383;BME280;16365;51.598;7.668;2022-12-18T13:57:34;101824.06;;;5.44;47.73
29383;BME280;16365;51.598;7.668;2022-12-18T14:00:31;101816.63;;;5.44;47.43
29383;BME280;16365;51.598;7.668;2022-12-18T14:02:58;101838.94;;;5.48;47.74
29383;BME280;16365;51.598;7.668;2022-12-18T14:05:31;101827.94;;;5.48;47.64
29383;BME280;16365;51.598;7.668;2022-12-18T14:08:05;101826.84;;;5.49;47.53
29383;BME280;16365;51.598;7.668;2022-12-18T14:10:32;101826.56;;;5.50;47.49
29383;BME280;16365;51.598;7.668;2022-12-18T14:13:20;101818.31;;;5.50;47.63
29383;BME280;16365;51.598;7.668;2022-12-18T14:15:48;101817.22;;;5.51;47.58
29383;BME280;16365;51.598;7.668;2022-12-18T14:21:23;101819.13;;;5.51;47.91
29383;BME280;16365;51.598;7.668;2022-12-18T14:24:15;101817.47;;;5.50;47.42
29383;BME280;16365;51.598;7.668;2022-12-18T14:26:46;101813.94;;;5.54;47.60
29383;BME280;16365;51.598;7.668;2022-12-18T14:32:12;101809.53;;;5.53;47.53
29383;BME280;16365;51.598;7.668;2022-12-18T14:34:51;101792.75;;;5.55;47.45